createdAt,value
2018-07-02T00:00:41.239Z,15.90
2018-07-02T00:03:09.392Z,15.90
2018-07-02T00:05:49.014Z,15.90
2018-07-02T00:08:17.043Z,15.80
2018-07-02T00:10:45.050Z,15.60
2018-07-02T00:13:13.102Z,15.60
2018-07-02T00:15:41.121Z,15.60
2018-07-02T00:18:09.149Z,15.60
2018-07-02T00:20:37.163Z,15.60
2018-07-02T00:23:05.187Z,15.60
2018-07-02T00:25:33.211Z,15.50
2018-07-02T00:28:01.242Z,15.50
2018-07-02T00:30:29.258Z,15.50
2018-07-02T00:32:57.274Z,15.50
2018-07-02T00:35:25.289Z,15.40
2018-07-02T00:37:53.718Z,15.40
2018-07-02T00:40:21.726Z,15.40
2018-07-02T00:45:17.542Z,15.40
2018-07-02T00:47:45.558Z,15.40
2018-07-02T00:50:13.575Z,15.40
2018-07-02T00:52:41.594Z,15.40
2018-07-02T00:55:09.614Z,15.40
2018-07-02T00:57:37.639Z,15.40
2018-07-02T01:00:15.538Z,15.30
2018-07-02T01:02:43.794Z,15.30
2018-07-02T01:05:12.371Z,15.30
2018-07-02T01:07:40.726Z,15.20
2018-07-02T01:10:08.742Z,15.20
2018-07-02T01:12:36.944Z,15.10
2018-07-02T01:15:05.198Z,15.10
2018-07-02T01:17:33.214Z,15.00
2018-07-02T01:20:01.239Z,15.00
2018-07-02T01:22:29.280Z,15.10
2018-07-02T01:24:57.289Z,15.00
2018-07-02T01:27:25.322Z,15.10
2018-07-02T01:32:21.162Z,15.00
2018-07-02T01:34:49.179Z,15.00
2018-07-02T01:37:17.194Z,15.00
2018-07-02T01:39:45.205Z,14.90
2018-07-02T01:42:13.226Z,14.90
2018-07-02T01:44:41.472Z,14.80
2018-07-02T01:47:09.482Z,14.80
2018-07-02T01:49:37.498Z,14.80
2018-07-02T01:52:05.527Z,14.80
2018-07-02T01:54:33.553Z,14.80
2018-07-02T01:59:29.372Z,14.80
2018-07-02T02:01:57.387Z,14.80
2018-07-02T02:04:25.423Z,14.80
2018-07-02T02:06:53.470Z,14.80
2018-07-02T02:09:21.481Z,14.90
2018-07-02T02:11:49.498Z,14.80
2018-07-02T02:14:17.522Z,14.80
2018-07-02T02:16:45.533Z,14.80
2018-07-02T02:19:13.559Z,14.70
2018-07-02T02:21:41.576Z,14.70
2018-07-02T02:24:09.600Z,14.70
2018-07-02T02:26:37.627Z,14.60
2018-07-02T02:29:05.651Z,14.70
2018-07-02T02:31:33.681Z,14.60
2018-07-02T02:34:01.715Z,14.50
2018-07-02T02:36:29.721Z,14.40
2018-07-02T02:38:57.731Z,14.40
2018-07-02T02:41:25.742Z,14.30
2018-07-02T02:43:53.892Z,14.30
2018-07-02T02:46:22.142Z,14.30
2018-07-02T02:48:50.167Z,14.20
2018-07-02T02:51:18.178Z,14.10
2018-07-02T02:53:46.202Z,14.00
2018-07-02T02:56:14.218Z,14.00
2018-07-02T02:58:42.226Z,14.00
2018-07-02T03:01:10.243Z,14.00
2018-07-02T03:03:38.258Z,14.00
2018-07-02T03:06:06.274Z,14.10
2018-07-02T03:08:34.295Z,14.00
2018-07-02T03:11:02.329Z,14.00
2018-07-02T03:13:30.346Z,14.00
2018-07-02T03:15:58.363Z,13.80
2018-07-02T03:18:26.382Z,13.80
2018-07-02T03:20:54.404Z,13.80
2018-07-02T03:23:22.420Z,13.70
2018-07-02T03:25:50.633Z,13.70
2018-07-02T03:28:18.648Z,13.70
2018-07-02T03:30:46.661Z,13.60
2018-07-02T03:33:14.670Z,13.60
2018-07-02T03:35:42.700Z,13.60
2018-07-02T03:38:10.697Z,13.60
2018-07-02T03:40:38.705Z,13.60
2018-07-02T03:43:06.711Z,13.60
2018-07-02T03:45:34.726Z,13.60
2018-07-02T03:50:30.569Z,13.60
2018-07-02T03:52:58.591Z,13.60
2018-07-02T03:55:26.603Z,13.60
2018-07-02T03:57:54.666Z,13.50
2018-07-02T04:00:22.682Z,13.40
2018-07-02T04:02:50.695Z,13.40
2018-07-02T04:05:18.722Z,13.40
2018-07-02T04:07:46.735Z,13.50
2018-07-02T04:10:14.746Z,13.50
2018-07-02T04:12:42.764Z,13.50
2018-07-02T04:15:10.777Z,13.50
2018-07-02T04:17:38.782Z,13.60
2018-07-02T04:20:06.807Z,13.70
2018-07-02T04:22:34.831Z,13.70
2018-07-02T04:25:02.842Z,13.80
2018-07-02T04:27:30.866Z,13.80
2018-07-02T04:29:58.874Z,13.90
2018-07-02T04:32:26.891Z,13.90
2018-07-02T04:34:54.903Z,13.90
2018-07-02T04:37:22.919Z,14.00
2018-07-02T04:39:50.930Z,14.00
2018-07-02T04:44:46.758Z,14.10
2018-07-02T04:47:14.770Z,14.20
2018-07-02T04:49:42.782Z,14.30
2018-07-02T04:52:10.798Z,14.40
2018-07-02T04:54:38.818Z,14.40
2018-07-02T04:57:06.830Z,14.40
2018-07-02T04:59:35.126Z,14.40
2018-07-02T05:02:03.316Z,14.40
2018-07-02T05:04:31.127Z,14.50
2018-07-02T05:06:58.486Z,14.50
2018-07-02T05:09:25.842Z,14.50
2018-07-02T05:11:53.399Z,14.60
2018-07-02T05:16:47.727Z,14.70
2018-07-02T05:19:15.102Z,14.60
2018-07-02T05:21:42.466Z,14.70
2018-07-02T05:24:10.487Z,14.80
2018-07-02T05:26:37.842Z,14.80
2018-07-02T05:29:05.210Z,14.90
2018-07-02T05:31:32.610Z,14.80
2018-07-02T05:33:59.978Z,14.80
2018-07-02T05:36:27.366Z,14.80
2018-07-02T05:38:54.791Z,14.90
2018-07-02T05:41:22.121Z,15.00
2018-07-02T05:43:50.141Z,15.00
2018-07-02T05:46:17.582Z,15.10
2018-07-02T05:48:45.638Z,15.20
2018-07-02T05:51:12.994Z,15.30
2018-07-02T05:56:08.265Z,15.40
2018-07-02T05:58:35.658Z,15.50
2018-07-02T06:01:03.069Z,15.60
2018-07-02T06:03:30.446Z,15.70
2018-07-02T06:05:58.609Z,15.80
2018-07-02T06:08:26.056Z,15.80
2018-07-02T06:10:54.051Z,15.90
2018-07-02T06:15:49.911Z,16.10
2018-07-02T06:18:17.928Z,16.20
2018-07-02T06:20:45.310Z,16.30
2018-07-02T06:23:12.669Z,16.30
2018-07-02T06:25:40.050Z,16.40
2018-07-02T06:28:08.071Z,16.50
2018-07-02T06:30:36.169Z,16.60
2018-07-02T06:33:04.126Z,16.70
2018-07-02T06:35:32.142Z,16.80
2018-07-02T06:38:00.164Z,16.80
2018-07-02T06:40:28.194Z,16.90
2018-07-02T06:42:56.216Z,17.00
2018-07-02T06:45:24.227Z,17.10
2018-07-02T06:47:52.247Z,17.20
2018-07-02T06:50:20.266Z,17.20
2018-07-02T06:52:48.307Z,17.30
2018-07-02T06:55:16.327Z,17.40
2018-07-02T06:57:44.355Z,17.50
2018-07-02T07:00:12.370Z,17.50
2018-07-02T07:02:40.510Z,17.60
2018-07-02T07:05:08.527Z,17.70
2018-07-02T07:07:36.543Z,17.70
2018-07-02T07:10:04.590Z,17.80
2018-07-02T07:12:32.602Z,17.90
2018-07-02T07:15:00.619Z,18.00
2018-07-02T07:17:28.650Z,18.10
2018-07-02T07:19:56.666Z,18.20
2018-07-02T07:22:24.674Z,18.30
2018-07-02T07:24:52.038Z,18.30
2018-07-02T07:27:20.051Z,18.40
2018-07-02T07:29:48.071Z,18.60
2018-07-02T07:32:16.083Z,18.70
2018-07-02T07:34:44.095Z,18.70
2018-07-02T07:37:12.098Z,18.80
2018-07-02T07:39:40.122Z,18.80
2018-07-02T07:42:07.478Z,18.80
2018-07-02T07:44:35.509Z,18.90
2018-07-02T07:47:03.531Z,19.00
2018-07-02T07:51:59.366Z,19.20
2018-07-02T07:54:27.434Z,19.40
2018-07-02T07:56:55.454Z,19.50
2018-07-02T07:59:23.474Z,19.70
2018-07-02T08:01:51.485Z,19.80
2018-07-02T08:04:19.493Z,19.90
2018-07-02T08:06:47.502Z,20.00
2018-07-02T08:09:15.509Z,19.90
2018-07-02T08:11:43.719Z,20.00
2018-07-02T08:14:11.744Z,20.10
2018-07-02T08:16:39.754Z,20.10
2018-07-02T08:19:07.828Z,20.10
2018-07-02T08:21:35.803Z,20.20
2018-07-02T08:26:31.639Z,20.40
2018-07-02T08:28:59.669Z,20.50
2018-07-02T08:33:55.478Z,20.60
2018-07-02T08:36:23.493Z,20.70
2018-07-02T08:38:51.507Z,20.80
2018-07-02T08:41:19.538Z,20.80
2018-07-02T08:46:15.427Z,20.90
2018-07-02T08:48:43.438Z,21.00
2018-07-02T08:51:11.456Z,21.10
2018-07-02T08:53:39.470Z,21.20
2018-07-02T08:56:07.479Z,21.30
2018-07-02T08:58:35.495Z,21.30
2018-07-02T09:01:03.827Z,21.30
2018-07-02T09:03:31.858Z,21.50
2018-07-02T09:05:59.887Z,21.60
2018-07-02T09:08:27.910Z,21.70
2018-07-02T09:10:55.921Z,21.70
2018-07-02T09:13:23.931Z,21.70
2018-07-02T09:15:51.945Z,21.80
2018-07-02T09:18:19.953Z,22.00
2018-07-02T09:23:15.792Z,22.00
2018-07-02T09:25:43.794Z,22.00
2018-07-02T09:28:11.814Z,22.10
2018-07-02T09:30:39.926Z,22.20
2018-07-02T09:33:07.955Z,22.20
2018-07-02T09:35:35.966Z,22.40
2018-07-02T09:38:03.994Z,22.40
2018-07-02T09:40:32.004Z,22.40
2018-07-02T09:43:00.026Z,22.40
2018-07-02T09:45:27.378Z,22.30
2018-07-02T09:47:54.734Z,22.30
2018-07-02T09:50:22.090Z,22.50
2018-07-02T09:52:49.658Z,22.70
2018-07-02T09:55:17.206Z,22.80
2018-07-02T09:57:44.571Z,22.90
2018-07-02T10:00:11.930Z,23.10
2018-07-02T10:02:39.306Z,23.30
2018-07-02T10:05:06.665Z,23.40
2018-07-02T10:07:34.127Z,23.50
2018-07-02T10:10:01.491Z,23.40
2018-07-02T10:12:28.902Z,23.50
2018-07-02T10:14:56.870Z,23.60
2018-07-02T10:17:24.890Z,23.70
2018-07-02T10:19:52.898Z,23.80
2018-07-02T10:22:20.914Z,23.80
2018-07-02T10:27:16.746Z,23.90
2018-07-02T10:29:44.758Z,24.00
2018-07-02T10:32:12.118Z,24.00
2018-07-02T10:34:39.475Z,24.00
2018-07-02T10:37:07.486Z,23.80
2018-07-02T10:39:35.505Z,23.80
2018-07-02T10:42:03.530Z,24.00
2018-07-02T10:44:31.546Z,24.20
2018-07-02T10:46:59.577Z,24.40
2018-07-02T10:49:26.898Z,24.50
2018-07-02T10:51:54.610Z,24.60
2018-07-02T10:54:21.984Z,24.70
2018-07-02T10:56:49.342Z,24.80
2018-07-02T10:59:16.704Z,25.00
2018-07-02T11:01:44.718Z,25.20
2018-07-02T11:04:12.736Z,25.60
2018-07-02T11:06:40.778Z,25.90
2018-07-02T11:09:09.315Z,26.20
2018-07-02T11:11:37.331Z,26.40
2018-07-02T11:16:33.207Z,26.80
2018-07-02T11:19:01.230Z,27.00
2018-07-02T11:21:28.617Z,27.30
2018-07-02T11:23:56.630Z,27.50
2018-07-02T11:26:24.651Z,27.10
2018-07-02T11:28:52.018Z,26.90
2018-07-02T11:31:22.774Z,27.30
2018-07-02T11:33:50.791Z,27.50
2018-07-02T11:36:18.803Z,27.20
2018-07-02T11:38:46.164Z,26.90
2018-07-02T11:41:13.778Z,27.30
2018-07-02T11:43:41.141Z,27.80
2018-07-02T11:46:08.492Z,28.00
2018-07-02T11:48:35.855Z,28.10
2018-07-02T11:51:03.238Z,28.10
2018-07-02T11:53:30.609Z,28.20
2018-07-02T11:55:57.961Z,28.00
2018-07-02T11:58:25.328Z,28.00
2018-07-02T12:00:53.338Z,28.30
2018-07-02T12:05:47.845Z,28.60
2018-07-02T12:08:15.207Z,28.40
2018-07-02T12:10:42.568Z,28.20
2018-07-02T12:13:10.583Z,28.30
2018-07-02T12:15:37.945Z,28.70
2018-07-02T12:18:05.314Z,28.90
2018-07-02T12:20:32.713Z,29.10
2018-07-02T12:23:00.070Z,29.30
2018-07-02T12:25:27.430Z,29.40
2018-07-02T12:27:54.793Z,29.60
2018-07-02T12:30:22.160Z,29.30
2018-07-02T12:32:49.510Z,29.30
2018-07-02T12:35:16.874Z,29.70
2018-07-02T12:37:44.237Z,29.50
2018-07-02T12:42:39.402Z,29.50
2018-07-02T12:45:06.858Z,29.70
2018-07-02T12:47:34.214Z,29.80
2018-07-02T12:52:28.726Z,30.30
2018-07-02T12:54:56.126Z,30.40
2018-07-02T12:57:23.497Z,30.50
2018-07-02T12:59:50.873Z,30.10
2018-07-02T13:02:18.454Z,30.00
2018-07-02T13:04:45.807Z,29.60
2018-07-02T13:09:40.321Z,29.60
2018-07-02T13:12:08.479Z,30.00
2018-07-02T13:14:35.849Z,30.30
2018-07-02T13:17:03.442Z,30.20
2018-07-02T13:19:30.565Z,30.30
2018-07-02T13:21:57.936Z,30.40
2018-07-02T13:24:25.358Z,30.60
2018-07-02T13:26:52.836Z,30.70
2018-07-02T13:29:20.197Z,30.80
2018-07-02T13:31:47.566Z,30.80
2018-07-02T13:34:14.926Z,30.90
2018-07-02T13:36:42.385Z,31.10
2018-07-02T13:39:09.854Z,30.80
2018-07-02T13:41:37.294Z,30.50
2018-07-02T13:44:04.738Z,30.60
2018-07-02T13:46:32.114Z,30.90
2018-07-02T13:48:59.473Z,30.90
2018-07-02T13:51:26.854Z,31.10
2018-07-02T13:53:54.209Z,31.20
2018-07-02T13:56:21.575Z,30.90
2018-07-02T13:58:48.961Z,31.20
2018-07-02T14:01:16.328Z,31.40
2018-07-02T14:03:43.681Z,31.10
2018-07-02T14:08:38.854Z,31.10
2018-07-02T14:13:33.367Z,31.40
2018-07-02T14:16:00.966Z,31.50
2018-07-02T14:18:28.326Z,31.40
2018-07-02T14:20:55.690Z,31.40
2018-07-02T14:23:23.055Z,30.90
2018-07-02T14:25:50.430Z,31.00
2018-07-02T14:28:17.802Z,30.90
2018-07-02T14:30:45.169Z,30.90
2018-07-02T14:33:12.555Z,31.10
2018-07-02T14:35:39.898Z,31.10
2018-07-02T14:40:34.410Z,31.40
2018-07-02T14:43:01.786Z,31.30
2018-07-02T14:45:29.936Z,31.10
2018-07-02T14:47:57.190Z,30.60
2018-07-02T14:50:24.550Z,30.20
2018-07-02T14:52:51.925Z,30.70
2018-07-02T14:55:19.282Z,31.10
2018-07-02T14:57:46.650Z,31.10
2018-07-02T15:00:14.093Z,31.10
2018-07-02T15:02:41.385Z,31.20
2018-07-02T15:05:08.794Z,30.70
2018-07-02T15:10:03.357Z,31.30
2018-07-02T15:12:30.750Z,31.30
2018-07-02T15:14:58.141Z,31.60
2018-07-02T15:17:25.506Z,31.70
2018-07-02T15:19:52.870Z,31.50
2018-07-02T15:22:20.245Z,31.80
2018-07-02T15:24:47.625Z,31.70
2018-07-02T15:27:15.141Z,31.50
2018-07-02T15:29:42.556Z,31.80
2018-07-02T15:32:09.998Z,32.10
2018-07-02T15:34:37.358Z,32.10
2018-07-02T15:37:05.050Z,31.90
2018-07-02T15:39:32.445Z,31.80
2018-07-02T15:41:59.775Z,32.20
2018-07-02T15:44:27.138Z,32.40
2018-07-02T15:49:21.658Z,33.20
2018-07-02T15:51:49.013Z,32.60
2018-07-02T15:54:16.603Z,32.70
2018-07-02T15:56:43.737Z,33.30
2018-07-02T16:01:38.902Z,31.80
2018-07-02T16:04:06.443Z,32.20
2018-07-02T16:06:33.806Z,32.60
2018-07-02T16:09:01.191Z,33.10
2018-07-02T16:11:28.561Z,33.20
2018-07-02T16:13:55.954Z,33.00
2018-07-02T16:16:23.370Z,33.10
2018-07-02T16:18:50.737Z,33.10
2018-07-02T16:21:18.109Z,33.00
2018-07-02T16:23:45.486Z,32.90
2018-07-02T16:26:12.865Z,32.80
2018-07-02T16:28:40.230Z,32.70
2018-07-02T16:31:07.605Z,32.40
2018-07-02T16:33:34.965Z,32.40
2018-07-02T16:36:02.334Z,32.20
2018-07-02T16:38:29.698Z,32.00
2018-07-02T16:40:57.766Z,32.10
2018-07-02T16:43:25.138Z,31.90
2018-07-02T16:45:52.497Z,31.80
2018-07-02T16:48:20.518Z,31.30
2018-07-02T16:50:47.874Z,31.40
2018-07-02T16:53:15.264Z,31.50
2018-07-02T16:55:42.598Z,31.20
2018-07-02T16:58:09.958Z,31.10
2018-07-02T17:00:37.328Z,31.50
2018-07-02T17:07:58.986Z,31.70
2018-07-02T17:10:26.342Z,31.50
2018-07-02T17:12:53.711Z,31.30
2018-07-02T17:15:21.058Z,31.40
2018-07-02T17:20:15.613Z,31.00
2018-07-02T17:22:42.969Z,30.90
2018-07-02T17:25:10.325Z,31.00
2018-07-02T17:27:37.961Z,30.70
2018-07-02T17:30:06.857Z,30.60
2018-07-02T17:32:34.223Z,30.40
2018-07-02T17:35:01.587Z,30.20
2018-07-02T17:37:28.953Z,30.10
2018-07-02T17:39:56.354Z,30.00
2018-07-02T17:42:23.673Z,29.80
2018-07-02T17:44:51.033Z,29.70
2018-07-02T17:47:18.406Z,29.50
2018-07-02T17:49:45.761Z,29.40
2018-07-02T17:52:13.117Z,29.30
2018-07-02T17:54:40.493Z,29.10
2018-07-02T17:57:07.857Z,29.10
2018-07-02T17:59:35.223Z,29.00
2018-07-02T18:02:03.297Z,28.80
2018-07-02T18:04:31.323Z,28.80
2018-07-02T18:09:27.182Z,28.40
2018-07-02T18:11:54.559Z,28.20
2018-07-02T18:14:21.922Z,28.00
2018-07-02T18:16:49.942Z,27.80
2018-07-02T18:19:18.014Z,27.50
2018-07-02T18:21:46.056Z,27.20
2018-07-02T18:24:14.240Z,27.00
2018-07-02T18:26:42.356Z,26.80
2018-07-02T18:29:09.677Z,26.70
2018-07-02T18:31:37.715Z,26.60
2018-07-02T18:34:06.714Z,26.50
2018-07-02T18:36:34.734Z,26.30
2018-07-02T18:39:02.805Z,26.20
2018-07-02T18:41:30.914Z,26.10
2018-07-02T18:43:59.004Z,25.90
2018-07-02T18:46:27.014Z,25.90
2018-07-02T18:48:55.132Z,25.70
2018-07-02T18:51:23.066Z,25.50
2018-07-02T18:53:51.086Z,25.40
2018-07-02T18:56:18.448Z,25.20
2018-07-02T18:58:46.450Z,25.20
2018-07-02T19:01:14.459Z,25.10
2018-07-02T19:03:42.467Z,25.00
2018-07-02T19:06:10.519Z,24.90
2018-07-02T19:08:38.532Z,24.80
2018-07-02T19:11:06.536Z,24.70
2018-07-02T19:13:34.565Z,24.60
2018-07-02T19:16:02.570Z,24.50
2018-07-02T19:18:30.599Z,24.40
2018-07-02T19:20:58.619Z,24.30
2018-07-02T19:25:54.471Z,24.10
2018-07-02T19:28:22.516Z,24.00
2018-07-02T19:30:50.527Z,24.00
2018-07-02T19:35:46.407Z,23.80
2018-07-02T19:38:14.448Z,23.70
2018-07-02T19:40:42.516Z,23.60
2018-07-02T19:43:10.495Z,23.60
2018-07-02T19:45:38.510Z,23.50
2018-07-02T19:48:06.554Z,23.40
2018-07-02T19:50:34.630Z,23.40
2018-07-02T19:53:02.687Z,23.30
2018-07-02T19:55:30.755Z,23.20
2018-07-02T19:57:58.838Z,23.20
2018-07-02T20:02:54.841Z,23.10
2018-07-02T20:05:22.897Z,23.00
2018-07-02T20:07:50.915Z,23.00
2018-07-02T20:10:18.281Z,22.90
2018-07-02T20:12:45.737Z,22.80
2018-07-02T20:15:13.093Z,22.70
2018-07-02T20:17:40.462Z,22.70
2018-07-02T20:20:08.051Z,22.70
2018-07-02T20:22:35.406Z,22.60
2018-07-02T20:27:29.917Z,22.40
2018-07-02T20:29:57.295Z,22.40
2018-07-02T20:32:25.311Z,22.40
2018-07-02T20:34:53.359Z,22.40
2018-07-02T20:37:21.539Z,22.30
2018-07-02T20:39:49.566Z,22.30
2018-07-02T20:42:17.582Z,22.20
2018-07-02T20:47:13.519Z,22.10
2018-07-02T20:49:41.552Z,22.10
2018-07-02T20:52:09.559Z,22.00
2018-07-02T20:54:36.922Z,22.00
2018-07-02T20:57:04.333Z,21.90
2018-07-02T21:01:58.802Z,21.80
2018-07-02T21:04:26.178Z,21.80
2018-07-02T21:06:53.728Z,21.70
2018-07-02T21:09:22.723Z,21.60
2018-07-02T21:11:50.082Z,21.60
2018-07-02T21:14:17.458Z,21.50
2018-07-02T21:16:44.878Z,21.50
2018-07-02T21:19:12.251Z,21.40
2018-07-02T21:21:39.626Z,21.40
2018-07-02T21:24:07.649Z,21.40
2018-07-02T21:26:35.774Z,21.40
2018-07-02T21:29:03.761Z,21.30
2018-07-02T21:31:31.787Z,21.30
2018-07-02T21:33:59.815Z,21.20
2018-07-02T21:36:27.822Z,21.20
2018-07-02T21:38:55.887Z,21.10
2018-07-02T21:41:23.869Z,21.00
2018-07-02T21:43:51.883Z,20.90
2018-07-02T21:46:19.967Z,20.90
2018-07-02T21:48:48.034Z,20.80
2018-07-02T21:51:15.393Z,20.70
2018-07-02T21:53:42.759Z,20.60
2018-07-02T21:56:10.779Z,20.50
2018-07-02T21:58:38.146Z,20.40
2018-07-02T22:01:05.522Z,20.40
2018-07-02T22:03:33.613Z,20.40
2018-07-02T22:06:01.650Z,20.50
2018-07-02T22:08:29.667Z,20.50
2018-07-02T22:10:57.696Z,20.40
2018-07-02T22:13:25.715Z,20.40
2018-07-02T22:15:53.730Z,20.40
2018-07-02T22:18:21.804Z,20.30
2018-07-02T22:20:49.762Z,20.20
2018-07-02T22:23:17.785Z,20.10
2018-07-02T22:25:45.802Z,20.10
2018-07-02T22:28:13.819Z,20.10
2018-07-02T22:30:41.854Z,20.10
2018-07-02T22:33:09.871Z,20.10
2018-07-02T22:35:37.886Z,20.10
2018-07-02T22:38:05.902Z,20.00
2018-07-02T22:43:01.730Z,19.90
2018-07-02T22:45:29.787Z,19.80
2018-07-02T22:47:57.142Z,19.80
2018-07-02T22:50:24.542Z,19.80
2018-07-02T22:52:51.902Z,19.70
2018-07-02T22:55:19.923Z,19.60
2018-07-02T23:02:42.241Z,19.40
2018-07-02T23:05:09.593Z,19.30
2018-07-02T23:07:37.608Z,19.20
2018-07-02T23:10:04.989Z,19.10
2018-07-02T23:12:32.361Z,19.10
2018-07-02T23:14:59.738Z,19.10
2018-07-02T23:17:27.750Z,19.10
2018-07-02T23:19:55.115Z,19.10
2018-07-02T23:22:22.498Z,19.10
2018-07-02T23:27:17.033Z,19.10
2018-07-02T23:29:44.409Z,19.10
2018-07-02T23:32:11.798Z,19.10
2018-07-02T23:34:39.178Z,19.10
2018-07-02T23:37:06.569Z,19.00
2018-07-02T23:39:33.973Z,19.00
2018-07-02T23:42:01.354Z,19.00
2018-07-02T23:44:28.729Z,19.00
2018-07-02T23:49:31.338Z,18.70
2018-07-02T23:51:59.356Z,18.80
2018-07-02T23:54:27.370Z,18.80
2018-07-02T23:56:55.382Z,18.80
2018-07-02T23:59:22.745Z,18.60
